Time;durP1;ratioP1;P1;durP2;ratioP2;P2;SDS_P1;SDS_P2;PMS_P1;PMS_P2;Temp;Humidity;BMP_temperature;BMP_pressure;BME280_temperature;BME280_humidity;BME280_pressure;Samples;Min_cycle;Max_cycle;Signal;HPM_P1;HPM_P2
2022/06/23 00:02:26;;;;;;;11.50;3.78;;;;;;;15.73;53.63;98795.75;4842866;29;20050;-88
2022/06/23 00:05:03;;;;;;;9.82;3.60;;;;;;;16.10;53.91;98844.19;4804772;29;20160;-89
2022/06/23 00:07:36;;;;;;;12.93;4.20;;;;;;;15.80;55.18;98794.31;4810855;29;20084;-87
2022/06/23 00:10:44;;;;;;;8.02;3.78;;;;;;;15.86;55.84;98829.50;4812378;29;20802;-89
2022/06/23 00:13:37;;;;;;;13.18;3.53;;;;;;;15.62;56.16;98802.94;4811272;29;20070;-87
2022/06/23 00:16:05;;;;;;;10.20;3.90;;;;;;;16.06;55.58;98874.44;4803967;29;20534;-88
2022/06/23 00:18:37;;;;;;;12.07;4.40;;;;;;;16.00;56.05;98875.88;4862457;29;20052;-91
2022/06/23 00:21:36;;;;;;;12.95;3.97;;;;;;;15.68;55.77;98831.84;4860303;29;20563;-88
2022/06/23 00:24:06;;;;;;;17.27;4.15;;;;;;;15.54;54.94;98808.66;4868022;29;20056;-93
2022/06/23 00:26:34;;;;;;;7.30;3.45;;;;;;;15.54;54.05;98828.72;4858147;29;20045;-88
2022/06/23 00:29:18;;;;;;;14.55;4.45;;;;;;;15.76;54.60;98849.34;4896457;29;20044;-89
2022/06/23 00:32:05;;;;;;;10.93;3.85;;;;;;;15.98;54.21;98883.69;4897195;29;20104;-94
2022/06/23 00:34:40;;;;;;;7.10;3.55;;;;;;;15.90;53.79;98877.22;4904530;29;20040;-89
2022/06/23 00:37:17;;;;;;;13.85;3.60;;;;;;;16.06;53.81;98890.97;4890889;29;20378;-96
2022/06/23 00:39:53;;;;;;;11.15;3.85;;;;;;;15.64;54.69;98832.91;4925645;29;20099;-95
2022/06/23 00:42:33;;;;;;;12.57;4.40;;;;;;;16.05;54.87;98902.34;4893429;29;20075;-93
2022/06/23 00:45:11;;;;;;;13.88;4.32;;;;;;;15.61;54.29;98845.44;4924410;29;20055;-96
2022/06/23 00:48:06;;;;;;;10.73;3.88;;;;;;;15.73;54.10;98864.63;4905282;29;20063;-88
2022/06/23 00:50:32;;;;;;;18.02;3.65;;;;;;;16.01;53.89;98907.00;4980757;28;20129;-87
2022/06/23 00:53:01;;;;;;;16.13;4.43;;;;;;;16.04;54.08;98911.78;4982384;28;20073;-89
2022/06/23 00:55:46;;;;;;;17.10;4.03;;;;;;;15.49;54.47;98831.75;4965655;28;20442;-89
2022/06/23 00:58:28;;;;;;;20.47;5.30;;;;;;;15.61;53.56;98845.44;4978894;28;20038;-95
2022/06/23 01:01:03;;;;;;;13.82;4.38;;;;;;;15.84;54.18;98886.13;4981336;28;20133;-89
2022/06/23 01:03:37;;;;;;;20.88;4.25;;;;;;;16.01;53.92;98910.53;4962622;28;20041;-89
2022/06/23 01:06:32;;;;;;;16.52;4.70;;;;;;;16.04;54.63;98911.78;4945269;28;20042;-90
2022/06/23 01:09:18;;;;;;;14.52;5.30;;;;;;;15.67;53.89;98851.50;4957901;28;20062;-88
2022/06/23 01:11:54;;;;;;;19.98;4.60;;;;;;;15.95;54.43;98887.97;4962102;28;20177;-96
2022/06/23 01:14:23;;;;;;;11.52;4.45;;;;;;;16.06;54.04;98914.97;4962530;28;20034;-96
2022/06/23 01:16:54;;;;;;;12.40;4.30;;;;;;;15.78;53.54;98880.09;4938383;28;20141;-88
2022/06/23 01:22:49;;;;;;;23.65;4.75;;;;;;;16.07;53.50;98917.38;4965089;28;20042;-88
2022/06/23 01:25:34;;;;;;;10.10;4.32;;;;;;;16.05;53.64;98919.69;4963552;28;20049;-96
2022/06/23 01:28:17;;;;;;;13.48;4.40;;;;;;;15.84;53.66;98897.94;4943116;28;20066;-88
2022/06/23 01:30:52;;;;;;;12.70;4.63;;;;;;;15.62;53.67;98871.81;4952101;28;20535;-90
2022/06/23 01:33:45;;;;;;;10.35;3.95;;;;;;;15.78;53.98;98893.06;4967569;28;20503;-88
2022/06/23 01:36:22;;;;;;;21.27;4.47;;;;;;;15.66;53.71;98878.25;4962387;28;20043;-89
2022/06/23 01:39:06;;;;;;;17.20;6.18;;;;;;;16.13;52.82;98939.97;4983444;28;20070;-88
2022/06/23 01:42:01;;;;;;;21.52;4.03;;;;;;;15.66;52.83;98875.50;4980496;28;20042;-89
2022/06/23 01:44:45;;;;;;;15.10;4.30;;;;;;;15.93;52.46;98911.56;4947455;28;20054;-89
2022/06/23 01:47:23;;;;;;;11.93;4.13;;;;;;;16.01;52.88;98920.78;4969089;28;20059;-96
2022/06/23 01:49:55;;;;;;;13.05;3.90;;;;;;;15.78;53.13;98876.53;4982855;28;20389;-89
2022/06/23 01:52:22;;;;;;;12.50;4.55;;;;;;;15.98;53.79;98908.50;4978922;28;20038;-88
2022/06/23 01:54:56;;;;;;;15.15;4.85;;;;;;;15.95;52.96;98903.72;4949496;28;20039;-89
2022/06/23 01:57:42;;;;;;;11.93;4.20;;;;;;;16.02;53.07;98917.66;4956575;28;20039;-87
2022/06/23 02:00:21;;;;;;;13.27;4.57;;;;;;;16.31;53.11;98962.44;4933771;29;20078;-88
2022/06/23 02:03:19;;;;;;;15.88;4.65;;;;;;;15.82;52.64;98888.44;4956911;28;20046;-89
2022/06/23 02:06:11;;;;;;;11.55;4.60;;;;;;;16.22;53.23;98951.59;4974624;28;20034;-88
2022/06/23 02:08:57;;;;;;;16.38;4.65;;;;;;;16.16;52.70;98944.78;4940080;29;20051;-88
2022/06/23 02:11:45;;;;;;;12.85;4.72;;;;;;;16.00;53.04;98919.19;4945743;28;20415;-88
2022/06/23 02:14:20;;;;;;;14.27;4.60;;;;;;;16.31;52.87;98974.25;4926623;28;20043;-88
2022/06/23 02:17:10;;;;;;;16.45;4.40;;;;;;;16.27;52.75;98965.09;4955945;28;20043;-87
2022/06/23 02:19:42;;;;;;;12.93;4.20;;;;;;;16.26;52.81;98973.72;4957630;28;20407;-89
2022/06/23 02:22:08;;;;;;;14.30;4.55;;;;;;;16.17;52.97;98965.66;4952343;23;20137;-88
2022/06/23 02:24:53;;;;;;;25.58;4.65;;;;;;;16.17;53.26;98952.66;4920070;29;20142;-88
2022/06/23 02:27:37;;;;;;;33.08;5.28;;;;;;;15.94;52.95;98910.38;4935703;28;20393;-88
2022/06/23 02:30:05;;;;;;;24.08;5.07;;;;;;;16.47;52.70;98985.25;4953641;29;20049;-88
2022/06/23 02:32:41;;;;;;;14.45;5.30;;;;;;;15.95;52.43;98911.97;4952428;29;20043;-89
2022/06/23 02:35:25;;;;;;;38.22;7.55;;;;;;;16.07;53.06;98925.66;4952858;29;20047;-88
2022/06/23 02:38:12;;;;;;;29.92;5.40;;;;;;;16.53;53.67;98997.63;4927965;29;20047;-90
2022/06/23 02:40:43;;;;;;;15.10;4.93;;;;;;;16.05;53.06;98925.22;4905832;29;20538;-90
2022/06/23 02:43:13;;;;;;;16.83;5.25;;;;;;;16.58;53.33;99000.06;4901844;29;20044;-89
2022/06/23 02:46:18;;;;;;;26.92;5.63;;;;;;;16.38;52.71;98968.09;4923184;29;20043;-89
2022/06/23 02:49:14;;;;;;;11.98;5.38;;;;;;;16.61;52.51;99001.31;4921290;29;20429;-89
2022/06/23 02:51:59;;;;;;;15.02;5.25;;;;;;;16.65;52.74;99000.25;4948784;28;20138;-89
2022/06/23 02:54:49;;;;;;;15.50;4.78;;;;;;;16.66;52.21;99006.56;4942591;28;20046;-89
2022/06/23 02:57:37;;;;;;;16.67;5.00;;;;;;;16.66;52.26;99012.09;4955476;28;20043;-90
2022/06/23 03:00:20;;;;;;;;;;;;;;;16.68;53.04;99015.28;4903811;29;20051;-89
2022/06/23 03:02:52;;;;;;;13.52;4.90;;;;;;;16.65;52.92;99019.59;4903040;29;19923;-90
2022/06/23 03:05:53;;;;;;;15.18;4.78;;;;;;;16.35;52.21;98971.56;4899852;29;20445;-92
2022/06/23 03:09:00;;;;;;;21.35;5.03;;;;;;;16.38;52.50;98971.66;4933809;29;20051;-90
2022/06/23 03:11:53;;;;;;;18.23;4.55;;;;;;;16.20;52.41;98932.66;4929703;29;20046;-89
2022/06/23 03:14:49;;;;;;;17.65;5.00;;;;;;;16.56;52.38;98999.66;4928412;29;20043;-89
2022/06/23 03:18:00;;;;;;;14.18;4.50;;;;;;;16.75;52.11;99014.66;4936846;29;20042;-89
2022/06/23 03:20:38;;;;;;;10.75;4.80;;;;;;;16.49;52.38;98984.88;4935926;29;20134;-90
2022/06/23 03:23:36;;;;;;;15.93;4.93;;;;;;;16.86;52.93;99024.78;4917218;29;20055;-89
2022/06/23 03:26:21;;;;;;;29.38;5.20;;;;;;;16.94;52.17;99031.25;4948850;29;20036;-90
2022/06/23 03:29:18;;;;;;;15.57;4.50;;;;;;;16.42;52.35;98950.50;4920444;29;20187;-96
2022/06/23 03:31:47;;;;;;;11.95;5.18;;;;;;;16.96;52.32;99039.97;4963476;29;20039;-96
2022/06/23 03:34:52;;;;;;;16.50;5.30;;;;;;;16.94;52.34;99044.25;4954327;29;20090;-96
2022/06/23 03:38:18;;;;;;;17.08;5.60;;;;;;;16.95;51.87;99046.66;4939071;29;20137;-94
2022/06/23 03:43:45;;;;;;;14.15;5.25;;;;;;;16.45;52.10;98969.06;4950282;29;20043;-96
2022/06/23 03:46:21;;;;;;;21.90;5.35;;;;;;;17.07;52.33;99051.25;4953632;29;20039;-95
2022/06/23 03:49:28;;;;;;;12.73;5.10;;;;;;;16.72;52.23;99002.38;4890184;29;20044;-96
2022/06/23 03:51:59;;;;;;;17.50;5.03;;;;;;;16.75;51.20;99014.66;4829471;29;20070;-95
2022/06/23 03:54:45;;;;;;;15.63;5.07;;;;;;;16.97;51.56;99021.44;4797244;29;20050;-89
2022/06/23 04:00:42;;;;;;;14.88;5.20;;;;;;;17.29;51.09;99063.53;4805885;29;20066;-92
2022/06/23 04:03:39;;;;;;;16.13;5.10;;;;;;;17.20;51.36;99043.63;4924279;23;20062;-89
2022/06/23 04:06:32;;;;;;;23.25;5.45;;;;;;;17.10;51.30;99023.69;4964856;28;20051;-91
2022/06/23 04:09:10;;;;;;;21.63;5.38;;;;;;;17.26;51.19;99033.88;4969888;28;20530;-90
2022/06/23 04:11:51;;;;;;;17.88;5.28;;;;;;;17.50;51.09;99063.94;4927941;28;20690;-91
2022/06/23 04:14:50;;;;;;;22.15;5.45;;;;;;;17.08;50.83;98995.63;4944554;28;20045;-93
2022/06/23 04:17:38;;;;;;;23.13;5.15;;;;;;;17.13;51.20;99003.63;4941189;29;20070;-91
2022/06/23 04:20:16;;;;;;;23.92;6.45;;;;;;;17.46;50.68;99034.66;4943167;29;20507;-91
2022/06/23 04:22:47;;;;;;;16.25;5.55;;;;;;;17.73;50.74;99072.28;4928843;29;20059;-91
2022/06/23 04:25:22;;;;;;;22.58;5.45;;;;;;;17.31;50.68;98994.88;4974485;28;20043;-89
2022/06/23 04:28:01;;;;;;;25.20;6.07;;;;;;;17.59;50.27;99017.53;4925612;29;20047;-90
2022/06/23 04:33:18;;;;;;;23.75;5.57;;;;;;;17.83;49.79;99051.56;4942073;28;20035;-96
2022/06/23 04:35:51;;;;;;;17.48;5.95;;;;;;;17.69;49.65;99012.56;4945631;28;20522;-91
2022/06/23 04:38:23;;;;;;;27.60;6.03;;;;;;;17.87;50.14;99029.50;4962571;28;20046;-90
2022/06/23 04:41:12;;;;;;;25.70;5.43;;;;;;;18.30;50.20;99076.06;4939948;28;20047;-90
2022/06/23 04:44:01;;;;;;;24.98;5.60;;;;;;;17.88;49.63;99007.03;4938152;29;20053;-91
2022/06/23 04:46:51;;;;;;;21.85;5.55;;;;;;;18.00;49.28;98998.50;4965470;28;20043;-91
2022/06/23 04:52:33;;;;;;;17.02;5.70;;;;;;;18.54;48.74;99074.06;4957511;28;20058;-89
2022/06/23 04:55:17;;;;;;;17.00;5.55;;;;;;;18.53;48.76;99055.84;4959677;28;20053;-87
2022/06/23 04:58:14;;;;;;;22.45;6.45;;;;;;;18.48;48.44;99045.91;4973517;28;20043;-88
2022/06/23 05:00:50;;;;;;;26.75;6.78;;;;;;;18.88;47.64;99090.81;4942414;28;20047;-92
2022/06/23 05:03:33;;;;;;;17.33;5.70;;;;;;;19.00;47.93;99087.81;4974380;28;20061;-87
2022/06/23 05:06:42;;;;;;;23.63;5.88;;;;;;;18.91;46.96;99063.16;4976353;28;20053;-90
2022/06/23 05:09:19;;;;;;;14.43;5.90;;;;;;;19.05;47.26;99064.53;4948395;28;20046;-87
2022/06/23 05:12:01;;;;;;;24.85;6.50;;;;;;;19.13;47.35;99080.84;4968191;28;20530;-86
2022/06/23 05:14:54;;;;;;;19.35;6.55;;;;;;;19.21;46.53;99085.34;4965746;28;20097;-87
2022/06/23 05:17:47;;;;;;;15.30;5.50;;;;;;;19.18;46.17;99085.28;4956939;28;20055;-90
2022/06/23 05:20:24;;;;;;;28.38;6.70;;;;;;;19.28;47.07;99081.84;4970841;28;20043;-88
2022/06/23 05:22:52;;;;;;;39.95;6.00;;;;;;;19.41;46.07;99090.72;4933003;28;20484;-88
2022/06/23 05:25:36;;;;;;;17.83;5.47;;;;;;;19.35;43.99;99064.50;4956442;28;20034;-88
2022/06/23 05:28:12;;;;;;;25.27;6.00;;;;;;;19.44;44.96;99056.72;4939621;28;20415;-87
2022/06/23 05:30:47;;;;;;;49.13;6.20;;;;;;;19.60;43.52;99082.25;4940719;28;20038;-89
2022/06/23 05:33:19;;;;;;;31.13;6.60;;;;;;;19.26;44.20;99017.69;4940474;28;20425;-87
2022/06/23 05:35:59;;;;;;;35.83;6.47;;;;;;;19.48;45.73;99036.16;4973299;28;20038;-89
2022/06/23 05:38:53;;;;;;;34.65;6.72;;;;;;;20.02;44.36;99094.97;4973584;28;20049;-89
2022/06/23 05:41:26;;;;;;;9.52;4.03;;;;;;;19.87;40.38;99068.28;4956855;28;20125;-88
2022/06/23 05:43:56;;;;;;;33.33;6.65;;;;;;;20.07;41.40;99093.84;4973896;28;20061;-88
2022/06/23 05:46:25;;;;;;;34.92;5.28;;;;;;;20.12;40.18;99104.56;4960941;28;20039;-92
2022/06/23 05:49:04;;;;;;;36.47;5.65;;;;;;;19.84;39.92;99061.50;4973552;28;20046;-89
2022/06/23 05:51:41;;;;;;;46.72;6.68;;;;;;;20.26;40.68;99106.69;4956815;28;20133;-88
2022/06/23 05:54:25;;;;;;;29.33;5.95;;;;;;;20.27;40.16;99097.97;4974572;28;20051;-86
2022/06/23 05:57:01;;;;;;;42.40;6.72;;;;;;;20.26;38.46;99104.69;4963472;28;20057;-87
2022/06/23 05:59:54;;;;;;;29.10;5.82;;;;;;;20.02;39.90;99060.88;4940754;28;20137;-87
2022/06/23 06:02:30;;;;;;;47.38;6.88;;;;;;;20.26;39.92;99082.50;4971583;28;20051;-86
2022/06/23 06:04:58;;;;;;;33.50;8.48;;;;;;;20.39;41.85;99083.78;4966687;28;20035;-84
2022/06/23 06:07:36;;;;;;;78.25;9.52;;;;;;;20.63;40.20;99109.41;4948785;28;20133;-85
2022/06/23 06:10:13;;;;;;;33.10;6.38;;;;;;;20.66;39.59;99111.38;4926844;28;20504;-88
2022/06/23 06:12:42;;;;;;;49.03;13.07;;;;;;;20.69;42.90;99093.16;4970194;28;20034;-88
2022/06/23 06:15:20;;;;;;;44.05;7.63;;;;;;;20.64;42.18;99077.66;4933055;28;20419;-87
2022/06/23 06:17:49;;;;;;;53.33;7.97;;;;;;;20.73;40.52;99082.88;4955028;28;20129;-87
2022/06/23 06:20:16;;;;;;;120.88;15.13;;;;;;;20.83;40.57;99096.06;4967592;28;20125;-89
2022/06/23 06:23:05;;;;;;;;;;;;;;;20.88;38.94;99120.69;4940424;28;20114;-86
2022/06/23 06:25:35;;;;;;;59.80;8.48;;;;;;;20.73;38.54;99107.88;4952007;29;19922;-85
2022/06/23 06:28:31;;;;;;;69.75;7.28;;;;;;;20.67;38.43;99115.78;4958080;28;20090;-87
2022/06/23 06:31:13;;;;;;;18.83;5.68;;;;;;;20.65;39.32;99112.59;4895817;29;20048;-86
2022/06/23 06:33:49;;;;;;;49.90;7.75;;;;;;;20.75;39.76;99122.97;4891698;29;20107;-87
2022/06/23 06:36:26;;;;;;;33.78;6.50;;;;;;;20.53;41.45;99058.16;4894275;29;20052;-88
2022/06/23 06:38:58;;;;;;;33.10;6.97;;;;;;;20.92;40.31;99087.34;4893052;29;20136;-87
2022/06/23 06:41:24;;;;;;;108.65;13.27;;;;;;;21.16;39.70;99102.56;4910804;29;20150;-86
2022/06/23 06:43:51;;;;;;;49.85;7.80;;;;;;;21.09;39.42;99072.75;4896713;29;20509;-86
2022/06/23 06:46:17;;;;;;;32.50;6.97;;;;;;;21.24;39.26;99087.53;4900247;29;20466;-87
2022/06/23 06:48:43;;;;;;;66.60;10.18;;;;;;;21.18;38.46;99095.44;4879661;29;20060;-86
2022/06/23 06:51:29;;;;;;;42.67;6.72;;;;;;;21.21;38.70;99091.88;4911442;29;20048;-87
2022/06/23 06:54:06;;;;;;;22.85;5.45;;;;;;;21.36;37.21;99112.25;4910109;29;20051;-94
2022/06/23 06:57:09;;;;;;;33.15;5.78;;;;;;;21.38;40.04;99120.97;4912773;29;20052;-92
2022/06/23 06:59:57;;;;;;;95.80;11.10;;;;;;;21.42;38.14;99115.44;4878178;29;20100;-87
2022/06/23 07:02:34;;;;;;;70.30;8.55;;;;;;;21.50;39.11;99103.97;4895513;29;20067;-94
2022/06/23 07:05:23;;;;;;;89.25;11.07;;;;;;;21.69;38.73;99111.19;4884137;29;20099;-87
2022/06/23 07:08:01;;;;;;;56.50;8.52;;;;;;;21.80;37.45;99123.13;4916114;29;20051;-93
2022/06/23 07:10:52;;;;;;;50.38;7.90;;;;;;;21.63;36.38;99100.84;4929802;29;20048;-86
2022/06/23 07:13:29;;;;;;;107.30;12.68;;;;;;;21.71;37.71;99116.34;4928576;29;20130;-88
2022/06/23 07:16:03;;;;;;;94.85;10.75;;;;;;;21.55;37.28;99116.69;4924957;29;20095;-87
2022/06/23 07:18:58;;;;;;;60.45;9.07;;;;;;;21.62;37.47;99124.25;4933075;29;20046;-93
2022/06/23 07:22:03;;;;;;;81.70;12.48;;;;;;;21.68;38.04;99128.25;4911872;29;20060;-90
2022/06/23 07:24:41;;;;;;;60.35;9.85;;;;;;;21.52;37.81;99098.00;4928740;29;20059;-90
2022/06/23 07:27:25;;;;;;;87.25;12.30;;;;;;;21.46;37.14;99086.47;4896805;29;20047;-89
2022/06/23 07:29:51;;;;;;;88.78;11.77;;;;;;;21.82;36.49;99128.31;4900664;29;20092;-88
2022/06/23 07:32:21;;;;;;;98.33;12.20;;;;;;;21.85;36.80;99130.28;4897784;29;20557;-89
2022/06/23 07:34:56;;;;;;;160.32;15.95;;;;;;;21.77;38.04;99110.00;4948197;28;20383;-87
2022/06/23 07:37:32;;;;;;;17.17;6.22;;;;;;;21.86;36.09;99128.31;4960149;28;20105;-84
2022/06/23 07:40:06;;;;;;;33.42;7.05;;;;;;;21.71;36.61;99124.69;4923132;29;20035;-87
2022/06/23 07:42:51;;;;;;;59.03;9.90;;;;;;;21.81;36.92;99138.63;4938780;29;20035;-88
2022/06/23 07:45:24;;;;;;;61.50;12.18;;;;;;;21.74;38.92;99116.34;4955611;29;20066;-89
2022/06/23 07:47:51;;;;;;;27.58;7.38;;;;;;;21.71;36.54;99117.13;4939863;29;20416;-86
2022/06/23 07:50:18;;;;;;;32.55;8.40;;;;;;;21.61;36.02;99109.56;4955574;29;20078;-88
2022/06/23 07:52:45;;;;;;;50.75;9.48;;;;;;;21.32;37.35;99100.25;4939155;29;20051;-88
2022/06/23 07:55:31;;;;;;;;;;;;;;;21.67;38.85;99146.16;4955366;28;20068;-87
2022/06/23 07:57:59;;;;;;;25.58;7.22;;;;;;;21.76;38.28;99138.22;4938400;28;20396;-87
2022/06/23 08:00:26;;;;;;;33.58;8.07;;;;;;;21.77;38.06;99134.25;4938850;29;20035;-87
2022/06/23 08:03:00;;;;;;;46.10;8.65;;;;;;;22.00;38.08;99140.28;4967310;28;20058;-90
2022/06/23 08:05:36;;;;;;;26.88;7.90;;;;;;;21.98;37.79;99133.50;4968948;28;20043;-89
2022/06/23 08:08:04;;;;;;;29.30;7.32;;;;;;;21.99;38.05;99144.25;4970980;28;20051;-88
2022/06/23 08:10:32;;;;;;;20.80;7.15;;;;;;;21.87;37.80;99143.81;4953936;28;20034;-86
2022/06/23 08:13:05;;;;;;;41.78;9.30;;;;;;;21.79;37.92;99138.25;4974171;28;20045;-89
2022/06/23 08:19:14;;;;;;;58.08;9.90;;;;;;;22.02;36.95;99159.38;4954477;28;20170;-93
2022/06/23 08:21:49;;;;;;;80.32;12.18;;;;;;;22.03;36.81;99152.63;4963574;28;20492;-87
2022/06/23 08:24:23;;;;;;;42.58;6.93;;;;;;;21.95;36.79;99110.06;4972970;28;20118;-89
2022/06/23 08:27:28;;;;;;;43.97;7.10;;;;;;;22.15;37.87;99121.66;4972811;28;20315;-92
2022/06/23 08:30:07;;;;;;;100.38;13.07;;;;;;;22.45;36.60;99148.31;4846238;29;20065;-94
2022/06/23 08:32:37;;;;;;;37.22;8.63;;;;;;;22.37;34.13;99135.59;4878259;29;20056;-92
2022/06/23 08:35:09;;;;;;;35.20;7.75;;;;;;;22.54;35.45;99151.50;4879055;29;20570;-93
2022/06/23 08:37:48;;;;;;;30.60;7.82;;;;;;;22.68;35.44;99156.28;4876304;29;20056;-87
2022/06/23 08:40:50;;;;;;;43.38;9.32;;;;;;;22.86;37.20;99154.28;4859089;29;20052;-87
2022/06/23 08:43:22;;;;;;;57.65;10.77;;;;;;;22.92;35.72;99149.91;4851048;29;20049;-85
2022/06/23 08:46:06;;;;;;;83.50;12.23;;;;;;;23.06;36.17;99159.47;4869402;29;20041;-88
2022/06/23 08:48:55;;;;;;;39.90;7.95;;;;;;;22.89;34.94;99133.97;4886234;29;20101;-87
2022/06/23 08:51:44;;;;;;;49.75;7.65;;;;;;;23.10;34.76;99155.47;4895692;29;20409;-86
2022/06/23 08:54:25;;;;;;;43.95;8.10;;;;;;;23.15;35.20;99155.06;4866247;29;20061;-86
2022/06/23 08:57:06;;;;;;;119.82;15.82;;;;;;;23.18;34.74;99157.06;4874139;29;20048;-94
2022/06/23 08:59:35;;;;;;;39.05;9.00;;;;;;;23.18;33.88;99148.69;4878295;29;20144;-94
2022/06/23 09:02:09;;;;;;;109.47;13.57;;;;;;;23.15;35.32;99134.78;4888285;29;20113;-92
2022/06/23 09:07:33;;;;;;;94.65;11.52;;;;;;;23.36;34.41;99151.44;4924384;29;20048;-88
2022/06/23 09:10:51;;;;;;;51.00;8.73;;;;;;;23.35;32.98;99157.41;4943759;29;20457;-88
2022/06/23 09:13:54;;;;;;;57.03;8.98;;;;;;;23.00;33.63;99117.25;4882411;29;20105;-87
2022/06/23 09:20:23;;;;;;;41.85;9.13;;;;;;;22.96;34.28;99156.28;4958887;29;20051;-88
2022/06/23 09:23:28;;;;;;;31.60;8.20;;;;;;;23.12;34.25;99169.81;4935377;28;20039;-93
2022/06/23 09:26:21;;;;;;;44.47;7.88;;;;;;;22.89;36.03;99117.25;4965499;28;20019;-95
2022/06/23 09:29:01;;;;;;;38.70;8.48;;;;;;;23.33;33.52;99157.81;4923349;29;20527;-90
2022/06/23 09:32:00;;;;;;;45.65;8.45;;;;;;;23.38;34.08;99174.16;4957807;29;20039;-94
2022/06/23 09:35:16;;;;;;;38.75;8.38;;;;;;;23.29;33.90;99170.97;4947992;28;20039;-94
2022/06/23 09:38:03;;;;;;;22.15;7.65;;;;;;;23.16;33.28;99164.22;4959959;28;20114;-96
2022/06/23 09:47:04;;;;;;;40.40;10.25;;;;;;;23.71;35.21;99174.88;4954916;28;20042;-94
2022/06/23 09:50:09;;;;;;;36.70;8.27;;;;;;;23.47;34.92;99115.13;4955598;29;20036;-94
2022/06/23 09:53:13;;;;;;;41.35;8.50;;;;;;;23.96;33.59;99177.53;4915756;29;20044;-91
2022/06/23 09:55:46;;;;;;;31.40;7.50;;;;;;;23.89;32.67;99186.72;4954827;29;20043;-88
2022/06/23 09:58:32;;;;;;;40.05;7.75;;;;;;;23.53;32.98;99182.47;4944749;29;20098;-89
2022/06/23 10:04:37;;;;;;;24.52;6.93;;;;;;;23.59;32.93;99184.44;5087315;28;20417;-89
2022/06/23 10:07:12;;;;;;;21.92;7.18;;;;;;;23.70;35.24;99181.63;5053719;28;20143;-88
2022/06/23 10:09:38;;;;;;;30.73;8.73;;;;;;;23.86;33.78;99187.53;5088088;28;20059;-91
2022/06/23 10:12:39;;;;;;;31.45;7.88;;;;;;;23.86;32.86;99192.31;5069415;28;20048;-89
2022/06/23 10:15:56;;;;;;;27.67;7.78;;;;;;;23.89;32.74;99183.16;5032445;28;20533;-87
2022/06/23 10:19:02;;;;;;;24.42;7.00;;;;;;;23.85;32.97;99180.38;4991738;28;20038;-86
2022/06/23 10:22:02;;;;;;;26.33;7.22;;;;;;;23.81;33.18;99157.28;5042184;28;20059;-91
2022/06/23 10:25:22;;;;;;;29.60;8.30;;;;;;;24.00;33.96;99160.75;5057337;28;20051;-91
2022/06/23 10:28:29;;;;;;;30.48;7.13;;;;;;;24.15;32.32;99193.78;5025489;28;20045;-90
2022/06/23 10:31:15;;;;;;;18.38;6.68;;;;;;;24.05;31.66;99191.84;5065651;28;20052;-89
2022/06/23 10:34:12;;;;;;;38.70;9.18;;;;;;;23.85;31.66;99174.78;5067794;28;20036;-90
2022/06/23 10:36:48;;;;;;;30.63;7.55;;;;;;;24.02;32.54;99180.69;5016382;28;20086;-86
2022/06/23 10:39:27;;;;;;;25.50;7.63;;;;;;;24.09;34.10;99167.47;5049644;28;20578;-87
2022/06/23 10:42:11;;;;;;;40.35;10.10;;;;;;;24.41;33.88;99190.88;5067006;28;20048;-86
2022/06/23 10:44:43;;;;;;;22.80;7.68;;;;;;;24.59;32.73;99197.09;5067543;28;20518;-88
2022/06/23 10:47:52;;;;;;;26.48;7.65;;;;;;;24.73;33.91;99191.41;5016701;28;20078;-88
2022/06/23 10:50:20;;;;;;;36.80;7.70;;;;;;;24.83;31.79;99192.53;5015998;28;20024;-86
2022/06/23 10:53:11;;;;;;;56.83;8.55;;;;;;;24.79;32.48;99183.38;5065433;28;20036;-87
2022/06/23 10:55:58;;;;;;;55.60;8.88;;;;;;;24.85;31.80;99178.94;5048443;28;20037;-86
2022/06/23 10:58:33;;;;;;;31.38;8.20;;;;;;;24.88;31.68;99188.50;5067339;28;20045;-89
2022/06/23 11:01:20;;;;;;;31.20;7.95;;;;;;;24.57;32.10;99147.22;5069134;28;20036;-86
2022/06/23 11:04:24;;;;;;;25.35;7.78;;;;;;;24.98;33.15;99165.25;5047448;28;20083;-87
2022/06/23 11:08:08;;;;;;;33.50;8.65;;;;;;;25.11;32.33;99157.13;5057565;28;20462;-88
2022/06/23 11:11:13;;;;;;;52.60;10.13;;;;;;;25.42;31.81;99188.78;5065073;28;20524;-89
2022/06/23 11:14:06;;;;;;;61.97;10.65;;;;;;;25.31;32.40;99172.13;5064358;28;20044;-87
2022/06/23 11:16:36;;;;;;;22.02;8.05;;;;;;;25.49;30.66;99186.69;5037551;28;20091;-87
2022/06/23 11:19:35;;;;;;;24.83;7.97;;;;;;;25.20;30.83;99151.84;5040253;28;20128;-87
2022/06/23 11:22:44;;;;;;;39.83;10.35;;;;;;;25.43;29.61;99190.38;5055249;28;20101;-87
2022/06/23 11:25:40;;;;;;;33.90;9.50;;;;;;;25.23;29.35;99168.63;5025656;28;20040;-89
2022/06/23 11:28:34;;;;;;;50.45;10.63;;;;;;;25.36;29.71;99190.44;5037745;28;20040;-89
2022/06/23 11:31:16;;;;;;;77.82;12.32;;;;;;;25.52;29.93;99190.69;5070986;28;20049;-89
2022/06/23 11:33:59;;;;;;;63.05;12.70;;;;;;;25.51;29.06;99198.28;5063426;28;20111;-89
2022/06/23 11:36:44;;;;;;;51.55;10.38;;;;;;;25.30;29.82;99173.34;5051262;28;20501;-89
2022/06/23 11:39:48;;;;;;;63.30;11.93;;;;;;;25.43;29.60;99194.00;5054739;28;20090;-85
2022/06/23 11:42:29;;;;;;;37.30;8.93;;;;;;;25.33;29.37;99185.69;5039068;28;20037;-90
2022/06/23 11:45:18;;;;;;;23.98;8.57;;;;;;;25.17;29.45;99164.69;5074500;28;20052;-87
2022/06/23 11:47:56;;;;;;;33.65;9.50;;;;;;;25.39;31.96;99158.84;5023166;28;20620;-86
2022/06/23 11:50:40;;;;;;;45.20;10.25;;;;;;;25.75;31.20;99192.81;5064861;28;20128;-87
2022/06/23 11:53:22;;;;;;;55.75;8.80;;;;;;;25.77;30.11;99193.19;5016275;28;20041;-87
2022/06/23 11:55:56;;;;;;;144.45;17.85;;;;;;;25.35;29.61;99150.50;5032512;28;20417;-89
2022/06/23 11:58:44;;;;;;;63.25;10.55;;;;;;;25.66;29.27;99193.31;5015560;28;20111;-88
2022/06/23 12:01:15;;;;;;;50.03;10.00;;;;;;;25.67;30.05;99191.31;5031579;28;20045;-87
2022/06/23 12:04:10;;;;;;;44.35;10.15;;;;;;;25.80;30.39;99199.97;5026378;28;20048;-90
2022/06/23 12:06:41;;;;;;;63.33;10.98;;;;;;;25.71;30.69;99155.66;5029320;28;20052;-90
2022/06/23 12:09:40;;;;;;;63.63;14.35;;;;;;;26.09;31.98;99164.78;5032402;28;20033;-86
2022/06/23 12:12:10;;;;;;;56.03;10.48;;;;;;;26.41;29.34;99186.72;5014672;28;20045;-87
2022/06/23 12:14:43;;;;;;;77.10;13.68;;;;;;;26.45;29.70;99189.47;5032163;28;20040;-86
2022/06/23 12:17:19;;;;;;;38.88;10.07;;;;;;;26.21;28.81;99157.81;5032344;28;20580;-87
2022/06/23 12:20:04;;;;;;;;;;;;;;;26.61;30.66;99197.28;5015383;28;20033;-87
2022/06/23 12:22:39;;;;;;;67.82;11.45;;;;;;;26.68;29.77;99191.53;5048426;28;19928;-87
2022/06/23 12:25:28;;;;;;;67.30;11.57;;;;;;;26.64;29.09;99191.59;5032810;28;20037;-88
2022/06/23 12:28:13;;;;;;;124.72;14.25;;;;;;;26.47;29.39;99154.22;5033257;28;20042;-86
2022/06/23 12:31:06;;;;;;;95.30;13.38;;;;;;;26.73;29.38;99193.88;5032258;28;20033;-88
2022/06/23 12:34:03;;;;;;;61.72;11.35;;;;;;;26.78;29.21;99187.78;5031910;28;20655;-86
2022/06/23 12:36:53;;;;;;;51.42;10.82;;;;;;;26.61;29.59;99152.41;5031197;28;20056;-86
2022/06/23 12:39:37;;;;;;;76.75;13.30;;;;;;;27.04;30.60;99185.34;5031616;28;20037;-87
2022/06/23 12:42:17;;;;;;;58.67;11.45;;;;;;;26.85;28.65;99147.59;5030997;28;20041;-85
2022/06/23 12:45:06;;;;;;;122.35;22.98;;;;;;;27.19;28.99;99191.53;5031935;28;20048;-86
2022/06/23 12:47:45;;;;;;;51.85;11.63;;;;;;;27.06;28.57;99200.53;5027514;28;20049;-87
2022/06/23 12:50:30;;;;;;;42.60;11.07;;;;;;;26.87;29.11;99188.03;5030231;28;20056;-86
2022/06/23 12:53:19;;;;;;;64.40;10.23;;;;;;;26.83;29.23;99206.16;5027903;28;20624;-86
2022/06/23 12:56:06;;;;;;;65.03;12.60;;;;;;;26.88;28.60;99205.66;5030123;28;20037;-87
2022/06/23 12:58:40;;;;;;;43.50;9.82;;;;;;;27.09;29.31;99191.25;5021769;28;20418;-87
2022/06/23 13:01:20;;;;;;;70.20;11.57;;;;;;;27.05;28.42;99192.53;5033926;28;20072;-86
2022/06/23 13:04:02;;;;;;;43.35;10.23;;;;;;;26.85;28.05;99176.44;5007983;28;20057;-87
2022/06/23 13:06:38;;;;;;;65.68;13.52;;;;;;;27.01;28.45;99194.59;5061674;28;20042;-85
2022/06/23 13:09:15;;;;;;;69.50;13.63;;;;;;;26.98;31.35;99195.47;5028534;28;20049;-88
2022/06/23 13:12:00;;;;;;;107.93;15.60;;;;;;;26.86;28.83;99172.44;5033940;28;20128;-85
2022/06/23 13:14:53;;;;;;;71.05;12.30;;;;;;;26.82;27.58;99182.09;5022322;28;20522;-86